createdAt,value
2023-05-29T00:00:48.288Z,100.00
2023-05-29T00:05:55.483Z,100.00
2023-05-29T00:10:59.148Z,100.00
2023-05-29T00:16:02.136Z,100.00
2023-05-29T00:21:07.876Z,100.00
2023-05-29T00:26:10.173Z,100.00
2023-05-29T00:31:14.069Z,100.00
2023-05-29T00:36:16.228Z,100.00
2023-05-29T00:41:18.468Z,100.00
2023-05-29T00:46:21.822Z,100.00
2023-05-29T00:51:24.089Z,100.00
2023-05-29T00:56:27.363Z,100.00
2023-05-29T01:01:30.406Z,100.00
2023-05-29T01:06:43.169Z,100.00
2023-05-29T01:11:58.930Z,100.00
2023-05-29T01:17:07.617Z,100.00
2023-05-29T01:22:12.134Z,100.00
2023-05-29T01:27:19.151Z,100.00
2023-05-29T01:32:22.642Z,100.00
2023-05-29T01:37:25.020Z,100.00
2023-05-29T01:42:28.867Z,100.00
2023-05-29T01:47:31.407Z,100.00
2023-05-29T01:52:36.524Z,100.00
2023-05-29T01:57:38.823Z,100.00
2023-05-29T02:02:41.544Z,100.00
2023-05-29T02:07:44.164Z,100.00
2023-05-29T02:12:46.532Z,100.00
2023-05-29T02:17:48.469Z,100.00
2023-05-29T02:22:50.698Z,100.00
2023-05-29T02:27:54.379Z,100.00
2023-05-29T02:32:58.751Z,100.00
2023-05-29T02:38:01.759Z,100.00
2023-05-29T02:43:08.230Z,100.00
2023-05-29T02:48:10.603Z,100.00
2023-05-29T02:53:13.060Z,100.00
2023-05-29T02:58:17.588Z,100.00
2023-05-29T03:03:19.756Z,100.00
2023-05-29T03:08:21.957Z,100.00
2023-05-29T03:13:23.815Z,100.00
2023-05-29T03:18:32.558Z,100.00
2023-05-29T03:23:36.049Z,100.00
2023-05-29T03:28:39.487Z,100.00
2023-05-29T03:33:44.098Z,100.00
2023-05-29T03:38:53.195Z,100.00
2023-05-29T03:43:56.192Z,100.00
2023-05-29T03:49:01.266Z,100.00
2023-05-29T03:54:03.534Z,100.00
2023-05-29T03:59:05.873Z,100.00
2023-05-29T04:04:08.495Z,100.00
2023-05-29T04:09:10.690Z,100.00
2023-05-29T04:14:12.756Z,100.00
2023-05-29T04:19:14.882Z,100.00
2023-05-29T04:24:17.788Z,100.00
2023-05-29T04:29:20.593Z,100.00
2023-05-29T04:34:23.149Z,100.00
2023-05-29T04:39:26.415Z,100.00
2023-05-29T04:44:31.477Z,100.00
2023-05-29T04:49:34.736Z,100.00
2023-05-29T04:54:36.753Z,100.00
2023-05-29T04:59:38.992Z,100.00
2023-05-29T05:04:41.700Z,100.00
2023-05-29T05:09:44.058Z,100.00
2023-05-29T05:14:53.629Z,100.00
2023-05-29T05:19:55.909Z,100.00
2023-05-29T05:24:59.068Z,100.00
2023-05-29T05:30:02.848Z,100.00
2023-05-29T05:35:12.600Z,100.00
2023-05-29T05:40:19.765Z,100.00
2023-05-29T05:45:39.625Z,100.00
2023-05-29T05:50:45.064Z,100.00
2023-05-29T05:55:47.256Z,100.00
2023-05-29T06:00:50.093Z,100.00
2023-05-29T06:05:55.604Z,100.00
2023-05-29T06:11:02.648Z,100.00
2023-05-29T06:16:09.331Z,100.00
2023-05-29T06:21:13.715Z,100.00
2023-05-29T06:26:22.982Z,100.00
2023-05-29T06:31:25.736Z,100.00
2023-05-29T06:36:27.840Z,100.00
2023-05-29T06:41:30.554Z,100.00
2023-05-29T06:46:32.552Z,100.00
2023-05-29T06:51:35.240Z,99.76
2023-05-29T06:56:40.297Z,98.99
2023-05-29T07:01:42.249Z,94.19
2023-05-29T07:06:44.455Z,94.87
2023-05-29T07:11:46.611Z,94.13
2023-05-29T07:16:48.593Z,93.31
2023-05-29T07:21:52.035Z,90.92
2023-05-29T07:26:56.621Z,91.88
2023-05-29T07:32:02.443Z,88.47
2023-05-29T07:37:13.515Z,87.05
2023-05-29T07:42:16.857Z,86.81
2023-05-29T07:47:19.035Z,86.65
2023-05-29T07:52:24.139Z,83.96
2023-05-29T07:57:30.052Z,83.14
2023-05-29T08:02:34.488Z,83.81
2023-05-29T08:07:56.605Z,81.94
2023-05-29T08:12:58.563Z,79.06
2023-05-29T08:18:02.546Z,77.00
2023-05-29T08:23:04.616Z,76.14
2023-05-29T08:28:06.519Z,78.34
2023-05-29T08:33:08.457Z,77.40
2023-05-29T08:38:11.154Z,71.24
2023-05-29T08:43:22.683Z,66.51
2023-05-29T08:48:28.331Z,67.30
2023-05-29T08:53:31.322Z,66.62
2023-05-29T08:58:33.522Z,66.91
2023-05-29T09:03:35.864Z,66.72
2023-05-29T09:08:38.367Z,62.87
2023-05-29T09:13:40.997Z,62.93
2023-05-29T09:18:46.993Z,65.06
2023-05-29T09:23:53.616Z,64.85
2023-05-29T09:28:57.017Z,64.01
2023-05-29T09:34:04.086Z,67.41
2023-05-29T09:39:17.636Z,68.15
2023-05-29T09:44:21.840Z,60.72
2023-05-29T09:49:24.495Z,58.37
2023-05-29T09:54:31.186Z,57.80
2023-05-29T09:59:33.808Z,52.10
2023-05-29T10:04:36.381Z,50.13
2023-05-29T10:09:43.147Z,49.30
2023-05-29T10:14:45.907Z,46.14
2023-05-29T10:19:48.240Z,46.83
2023-05-29T10:24:50.160Z,45.88
2023-05-29T10:30:06.543Z,50.07
2023-05-29T10:35:17.762Z,51.39
2023-05-29T10:40:26.855Z,53.88
2023-05-29T10:45:36.250Z,57.38
2023-05-29T10:50:42.980Z,53.32
2023-05-29T10:55:46.501Z,50.21
2023-05-29T11:00:48.879Z,50.41
2023-05-29T11:06:07.399Z,49.70
2023-05-29T11:11:13.408Z,49.65
2023-05-29T11:16:20.538Z,44.89
2023-05-29T11:21:47.558Z,47.99
2023-05-29T11:26:50.465Z,49.80
2023-05-29T11:32:06.600Z,46.87
2023-05-29T11:37:08.681Z,46.83
2023-05-29T11:42:10.903Z,46.75
2023-05-29T11:47:15.967Z,48.16
2023-05-29T11:52:18.403Z,44.83
2023-05-29T11:57:21.808Z,45.69
2023-05-29T12:02:26.348Z,45.63
2023-05-29T12:07:28.453Z,45.79
2023-05-29T12:12:30.858Z,42.86
2023-05-29T12:17:33.310Z,43.73
2023-05-29T12:22:36.856Z,46.04
2023-05-29T12:27:44.069Z,45.89
2023-05-29T12:32:51.872Z,47.33
2023-05-29T12:38:03.534Z,48.36
2023-05-29T12:43:08.406Z,48.14
2023-05-29T12:48:12.289Z,47.73
2023-05-29T12:53:16.101Z,46.66
2023-05-29T12:58:18.212Z,47.93
2023-05-29T13:03:21.890Z,48.35
2023-05-29T13:08:24.115Z,47.71
2023-05-29T13:13:26.146Z,47.22
2023-05-29T13:18:28.066Z,46.18
2023-05-29T13:23:29.941Z,46.66
2023-05-29T13:28:32.172Z,45.08
2023-05-29T13:33:34.117Z,45.51
2023-05-29T13:38:36.045Z,48.01
2023-05-29T13:43:44.494Z,45.60
2023-05-29T13:48:47.114Z,45.88
2023-05-29T13:53:49.033Z,46.13
2023-05-29T13:58:51.325Z,46.06
2023-05-29T14:03:53.516Z,46.41
2023-05-29T14:08:57.295Z,44.87
2023-05-29T14:13:59.309Z,45.00
2023-05-29T14:19:02.230Z,47.91
2023-05-29T14:24:04.338Z,45.03
2023-05-29T14:29:14.145Z,45.26
2023-05-29T14:34:17.229Z,43.99
2023-05-29T14:39:19.321Z,46.25
2023-05-29T14:44:21.545Z,45.99
2023-05-29T14:49:24.703Z,43.84
2023-05-29T14:54:27.339Z,44.68
2023-05-29T14:59:29.296Z,42.12
2023-05-29T15:04:31.274Z,43.94
2023-05-29T15:09:33.291Z,47.82
2023-05-29T15:14:38.751Z,51.36
2023-05-29T15:19:40.734Z,52.58
2023-05-29T15:24:42.744Z,53.44
2023-05-29T15:29:44.710Z,51.33
2023-05-29T15:34:46.665Z,52.56
2023-05-29T15:39:48.696Z,52.99
2023-05-29T15:44:51.057Z,52.21
2023-05-29T15:49:53.139Z,54.48
2023-05-29T15:54:55.081Z,53.81
2023-05-29T15:59:57.145Z,53.80
2023-05-29T16:05:06.628Z,53.84
2023-05-29T16:10:09.759Z,55.10
2023-05-29T16:15:11.862Z,54.80
2023-05-29T16:20:14.656Z,55.80
2023-05-29T16:25:16.889Z,53.16
2023-05-29T16:30:18.915Z,74.13
2023-05-29T16:35:20.959Z,96.03
2023-05-29T16:40:24.415Z,100.00
2023-05-29T16:45:27.274Z,100.00
2023-05-29T16:50:29.340Z,100.00
2023-05-29T16:55:31.752Z,100.00
2023-05-29T17:00:33.984Z,100.00
2023-05-29T17:05:35.975Z,100.00
2023-05-29T17:10:40.498Z,100.00
2023-05-29T17:15:42.500Z,100.00
2023-05-29T17:20:45.098Z,100.00
2023-05-29T17:25:47.120Z,100.00
2023-05-29T17:30:49.200Z,100.00
2023-05-29T17:35:51.304Z,100.00
2023-05-29T17:40:53.429Z,100.00
2023-05-29T17:45:57.052Z,100.00
2023-05-29T17:50:59.167Z,100.00
2023-05-29T17:56:03.149Z,100.00
2023-05-29T18:01:05.740Z,100.00
2023-05-29T18:06:07.869Z,100.00
2023-05-29T18:11:09.815Z,100.00
2023-05-29T18:16:12.070Z,100.00
2023-05-29T18:21:14.363Z,100.00
2023-05-29T18:26:16.462Z,100.00
2023-05-29T18:31:20.214Z,100.00
2023-05-29T18:36:22.187Z,100.00
2023-05-29T18:41:24.821Z,100.00
2023-05-29T18:46:27.506Z,100.00
2023-05-29T18:51:29.726Z,100.00
2023-05-29T18:56:31.712Z,100.00
2023-05-29T19:01:35.480Z,100.00
2023-05-29T19:06:38.804Z,100.00
2023-05-29T19:11:40.811Z,100.00
2023-05-29T19:16:42.844Z,100.00
2023-05-29T19:21:44.986Z,100.00
2023-05-29T19:26:48.179Z,100.00
2023-05-29T19:31:50.536Z,100.00
2023-05-29T19:36:53.793Z,100.00
2023-05-29T19:41:55.894Z,100.00
2023-05-29T19:46:58.155Z,100.00
2023-05-29T19:52:00.389Z,100.00
2023-05-29T19:57:03.774Z,100.00
2023-05-29T20:02:06.926Z,100.00
2023-05-29T20:07:08.939Z,100.00
2023-05-29T20:12:11.026Z,100.00
2023-05-29T20:17:13.064Z,100.00
2023-05-29T20:22:15.059Z,100.00
2023-05-29T20:27:17.103Z,100.00
2023-05-29T20:32:19.262Z,100.00
2023-05-29T20:37:24.336Z,100.00
2023-05-29T20:42:26.404Z,100.00
2023-05-29T20:47:29.364Z,100.00
2023-05-29T20:52:31.477Z,100.00
2023-05-29T20:57:36.447Z,100.00
2023-05-29T21:02:38.560Z,100.00
2023-05-29T21:07:42.509Z,100.00
2023-05-29T21:12:48.501Z,100.00
2023-05-29T21:17:50.965Z,100.00
2023-05-29T21:22:52.978Z,100.00
2023-05-29T21:27:55.567Z,100.00
2023-05-29T21:32:57.834Z,100.00
2023-05-29T21:38:01.599Z,100.00
2023-05-29T21:43:03.814Z,100.00
2023-05-29T21:48:05.881Z,100.00
2023-05-29T21:53:08.564Z,100.00
2023-05-29T21:58:10.702Z,100.00
2023-05-29T22:03:13.078Z,100.00
2023-05-29T22:08:15.174Z,100.00
2023-05-29T22:13:17.288Z,100.00
2023-05-29T22:18:19.936Z,100.00
2023-05-29T22:23:23.382Z,100.00
2023-05-29T22:28:25.332Z,100.00
2023-05-29T22:33:28.649Z,100.00
2023-05-29T22:38:30.570Z,100.00
2023-05-29T22:43:33.299Z,100.00
2023-05-29T22:48:35.906Z,100.00
2023-05-29T22:53:37.950Z,100.00
2023-05-29T22:58:39.920Z,100.00
2023-05-29T23:03:42.312Z,100.00
2023-05-29T23:08:45.124Z,100.00
2023-05-29T23:13:46.973Z,100.00
2023-05-29T23:18:49.136Z,100.00
2023-05-29T23:23:51.132Z,100.00
2023-05-29T23:28:53.309Z,100.00
2023-05-29T23:33:55.566Z,100.00
2023-05-29T23:38:57.652Z,100.00
2023-05-29T23:43:59.721Z,100.00
2023-05-29T23:49:02.640Z,100.00
2023-05-29T23:54:04.611Z,100.00
2023-05-29T23:59:07.356Z,100.00
